Airfield :







YOU CAN JOIN US ON...

 
LOGIN :

Register | Disclaimer

   EN    FR    IT 

 









Legend :    VFR   Marginal VFR   IFR   Intensive IFR   Very Intensive IFR
Visi :
Ceiling :
>= 8 km
>= 3000ft
5 to 8 km
1000 to 3000 ft
1500m to 5 km
500 to 1000 ft
800 to 1500m
200 to 500 ft
< 800m
< 200 ft
Symbols :   Thunderstorms  Fog  Heavy snow  Heavy precipitations  Wind > 20 kt






- Airport Elevation : 133 ft
- IATA code : BED


KBED - Laurence G Hanscom Field

CURRENT METAR :
  • 250451Z AUTO 32008KT 10SM BKN039 OVC050 17/16 A2969 RMK AO2 SLP064 T01720156 402720172

EXPIRED METARs :
  • 250351Z AUTO 33007KT 10SM OVC043 17/16 A2968 RMK AO2 RAE34 SLP060 P0002 T01720156
  • 250251Z 33013KT 4SM RA BR SCT015 SCT029 OVC050 18/16 A2966 RMK AO2 PK WND 33028/0222 RAB25 SLP053 P0003 60003 T01780161 53027
  • 250151Z 32010G19KT 10SM BKN025 BKN110 19/16 A2962 RMK AO2 SLP040 T01940156
  • 250051Z COR 30007KT 10SM BKN060 BKN110 19/16 A2959 RMK AO2 SLP032 T01940156

TAF KBED
Valid from the 25 at 03:00 until the 26 at 00:00 UTC


250310Z 2503/2524 34010KT 4SM -RA BR BKN030
FM250500 32010KT P6SM SCT050
FM251500 31011G20KT P6SM SCT120
KZBW FIR / North America



MET'MAP, your aeronautical weather chart ! - Copyright ORBIFLY December 2007 - Disclaimer

ORBIFLY MET'MAP TEAM :

Programming & Development : Alexandra Zaïnal
Original concept : Baudouin d'Aumeries
Technical & hardware support : Manuel Goepfert
Assistance : Marc-Olivier Méhu




SOURCES & CREDITS :

   NOAA